Henderson, Arkansas
Current Conditions -  °F | °C
As of 9:53 AM on Thursday 18 Dec 2014 (Local Time) from KBPK Reporting Station
Haze Haze  
Wind Chill: 30°   Ceiling: 500
Heat Index: 35°   Visibility: 5mi
Dew Point: 34°   Wind: 6mph
Humidity: 96%   Direction: 130°SE
Pressure: 30.22"   Gusts: NA
Location:  36.38°N, 92.23°W
Report Text: KBPK 181553Z AUTO 13005KT 5SM BR OVC005 02/01 A3022 RMK AO2 SLP241 T00170011
Loading
Personal Weather Stations






























Interactive Weather Map New forecast layout! Learn more

10-Day Weather Forecast

Advertisements
Track Severe Weather on mobile